sensor_id;sensor_type;location;lat;lon;timestamp;temperature;humidity
23081;DHT22;11708;50.570;8.532;2022-07-29T18:10:21;24.40;99.90
23081;DHT22;11708;50.570;8.532;2022-07-29T18:12:46;24.40;99.90
23081;DHT22;11708;50.570;8.532;2022-07-29T18:15:12;24.30;99.90
23081;DHT22;11708;50.570;8.532;2022-07-29T18:17:40;24.20;99.90
23081;DHT22;11708;50.570;8.532;2022-07-29T18:20:06;24.20;99.90
23081;DHT22;11708;50.570;8.532;2022-07-29T18:22:32;24.00;99.90
23081;DHT22;11708;50.570;8.532;2022-07-29T18:24:57;23.90;99.90
23081;DHT22;11708;50.570;8.532;2022-07-29T18:27:23;23.90;99.90
23081;DHT22;11708;50.570;8.532;2022-07-29T18:29:51;23.70;99.90
23081;DHT22;11708;50.570;8.532;2022-07-29T18:32:18;23.70;99.90
23081;DHT22;11708;50.570;8.532;2022-07-29T18:34:43;23.60;99.90
23081;DHT22;11708;50.570;8.532;2022-07-29T18:37:09;23.60;99.90
23081;DHT22;11708;50.570;8.532;2022-07-29T18:39:35;23.50;99.90
23081;DHT22;11708;50.570;8.532;2022-07-29T18:42:00;23.50;99.90
23081;DHT22;11708;50.570;8.532;2022-07-29T18:44:26;23.40;99.90
23081;DHT22;11708;50.570;8.532;2022-07-29T18:46:51;23.30;99.90
23081;DHT22;11708;50.570;8.532;2022-07-29T18:49:17;23.20;99.90
23081;DHT22;11708;50.570;8.532;2022-07-29T18:51:43;23.20;99.90
23081;DHT22;11708;50.570;8.532;2022-07-29T18:54:08;23.10;99.90
23081;DHT22;11708;50.570;8.532;2022-07-29T18:56:35;23.00;99.90
23081;DHT22;11708;50.570;8.532;2022-07-29T18:59:00;23.00;99.90
23081;DHT22;11708;50.570;8.532;2022-07-29T19:01:27;22.90;99.90
23081;DHT22;11708;50.570;8.532;2022-07-29T19:03:53;22.80;99.90
23081;DHT22;11708;50.570;8.532;2022-07-29T19:06:18;22.80;99.90
23081;DHT22;11708;50.570;8.532;2022-07-29T19:08:44;22.60;99.90
23081;DHT22;11708;50.570;8.532;2022-07-29T19:11:10;22.50;99.90
23081;DHT22;11708;50.570;8.532;2022-07-29T19:13:37;22.50;99.90
23081;DHT22;11708;50.570;8.532;2022-07-29T19:16:04;22.40;99.90
23081;DHT22;11708;50.570;8.532;2022-07-29T19:18:30;22.40;99.90
23081;DHT22;11708;50.570;8.532;2022-07-29T19:20:55;22.30;99.90
23081;DHT22;11708;50.570;8.532;2022-07-29T19:23:21;22.30;99.90
23081;DHT22;11708;50.570;8.532;2022-07-29T19:25:47;22.30;99.90
23081;DHT22;11708;50.570;8.532;2022-07-29T19:28:12;22.30;99.90
23081;DHT22;11708;50.570;8.532;2022-07-29T19:30:38;22.20;99.90
23081;DHT22;11708;50.570;8.532;2022-07-29T19:33:04;22.30;99.90
23081;DHT22;11708;50.570;8.532;2022-07-29T19:35:30;22.30;99.90
23081;DHT22;11708;50.570;8.532;2022-07-29T19:37:57;22.30;99.90
23081;DHT22;11708;50.570;8.532;2022-07-29T19:40:24;22.30;99.90
23081;DHT22;11708;50.570;8.532;2022-07-29T19:42:53;22.30;99.90
23081;DHT22;11708;50.570;8.532;2022-07-29T19:45:20;22.30;99.90
23081;DHT22;11708;50.570;8.532;2022-07-29T19:47:46;22.20;99.90
23081;DHT22;11708;50.570;8.532;2022-07-29T19:50:12;22.20;99.90
23081;DHT22;11708;50.570;8.532;2022-07-29T19:52:38;22.20;99.90
23081;DHT22;11708;50.570;8.532;2022-07-29T19:55:04;22.10;99.90
23081;DHT22;11708;50.570;8.532;2022-07-29T19:57:31;22.00;99.90
23081;DHT22;11708;50.570;8.532;2022-07-29T19:59:56;22.00;99.90
23081;DHT22;11708;50.570;8.532;2022-07-29T20:02:22;22.00;99.90
23081;DHT22;11708;50.570;8.532;2022-07-29T20:04:47;22.00;99.90
23081;DHT22;11708;50.570;8.532;2022-07-29T20:07:13;22.00;99.90
23081;DHT22;11708;50.570;8.532;2022-07-29T20:09:40;21.90;99.90
23081;DHT22;11708;50.570;8.532;2022-07-29T20:12:10;21.90;99.90
23081;DHT22;11708;50.570;8.532;2022-07-29T20:14:36;21.80;99.90
23081;DHT22;11708;50.570;8.532;2022-07-29T20:19:28;21.70;99.90
23081;DHT22;11708;50.570;8.532;2022-07-29T20:21:53;21.70;99.90
23081;DHT22;11708;50.570;8.532;2022-07-29T20:24:19;21.70;99.90
23081;DHT22;11708;50.570;8.532;2022-07-29T20:26:46;21.70;99.90
23081;DHT22;11708;50.570;8.532;2022-07-29T20:29:12;21.60;99.90
23081;DHT22;11708;50.570;8.532;2022-07-29T20:31:38;21.60;99.90
23081;DHT22;11708;50.570;8.532;2022-07-29T20:34:04;21.60;99.90
23081;DHT22;11708;50.570;8.532;2022-07-29T20:36:30;21.50;99.90
23081;DHT22;11708;50.570;8.532;2022-07-29T20:38:56;21.50;99.90
23081;DHT22;11708;50.570;8.532;2022-07-29T20:41:24;21.40;99.90
23081;DHT22;11708;50.570;8.532;2022-07-29T20:43:49;21.40;99.90
23081;DHT22;11708;50.570;8.532;2022-07-29T20:46:15;21.10;99.90
23081;DHT22;11708;50.570;8.532;2022-07-29T20:48:41;21.30;99.90
23081;DHT22;11708;50.570;8.532;2022-07-29T20:51:06;21.30;99.90
23081;DHT22;11708;50.570;8.532;2022-07-29T20:53:32;21.30;99.90
23081;DHT22;11708;50.570;8.532;2022-07-29T20:55:58;21.30;99.90
23081;DHT22;11708;50.570;8.532;2022-07-29T20:58:24;21.30;99.90
23081;DHT22;11708;50.570;8.532;2022-07-29T21:00:51;21.30;99.90
23081;DHT22;11708;50.570;8.532;2022-07-29T21:03:17;21.10;99.90
23081;DHT22;11708;50.570;8.532;2022-07-29T21:05:43;20.80;99.90
23081;DHT22;11708;50.570;8.532;2022-07-29T21:08:10;21.00;99.90
23081;DHT22;11708;50.570;8.532;2022-07-29T21:10:35;20.80;99.90
23081;DHT22;11708;50.570;8.532;2022-07-29T21:13:01;20.80;99.90
23081;DHT22;11708;50.570;8.532;2022-07-29T21:15:27;20.70;99.90
23081;DHT22;11708;50.570;8.532;2022-07-29T21:17:54;20.60;99.90
23081;DHT22;11708;50.570;8.532;2022-07-29T21:20:27;20.50;99.90
23081;DHT22;11708;50.570;8.532;2022-07-29T21:22:53;20.50;99.90
23081;DHT22;11708;50.570;8.532;2022-07-29T21:25:21;20.30;99.90
23081;DHT22;11708;50.570;8.532;2022-07-29T21:27:47;20.10;99.90
23081;DHT22;11708;50.570;8.532;2022-07-29T21:30:42;20.00;99.90
23081;DHT22;11708;50.570;8.532;2022-07-29T21:33:07;20.00;99.90
23081;DHT22;11708;50.570;8.532;2022-07-29T21:35:33;19.90;99.90
23081;DHT22;11708;50.570;8.532;2022-07-29T21:37:58;19.90;99.90
23081;DHT22;11708;50.570;8.532;2022-07-29T21:40:24;19.80;99.90
23081;DHT22;11708;50.570;8.532;2022-07-29T21:42:49;19.80;99.90
23081;DHT22;11708;50.570;8.532;2022-07-29T21:45:15;19.90;99.90
23081;DHT22;11708;50.570;8.532;2022-07-29T21:47:40;19.70;99.90
23081;DHT22;11708;50.570;8.532;2022-07-29T21:50:06;20.00;99.90
23081;DHT22;11708;50.570;8.532;2022-07-29T21:52:32;19.60;99.90
23081;DHT22;11708;50.570;8.532;2022-07-29T21:54:57;19.50;99.90
23081;DHT22;11708;50.570;8.532;2022-07-29T21:57:23;19.50;99.90
23081;DHT22;11708;50.570;8.532;2022-07-29T21:59:50;19.50;99.90
23081;DHT22;11708;50.570;8.532;2022-07-29T22:02:16;19.40;99.90
23081;DHT22;11708;50.570;8.532;2022-07-29T22:04:41;19.30;99.90
23081;DHT22;11708;50.570;8.532;2022-07-29T22:07:07;19.20;99.90
23081;DHT22;11708;50.570;8.532;2022-07-29T22:09:32;19.10;99.90
23081;DHT22;11708;50.570;8.532;2022-07-29T22:11:58;19.10;99.90
23081;DHT22;11708;50.570;8.532;2022-07-29T22:14:24;18.90;99.90
23081;DHT22;11708;50.570;8.532;2022-07-29T22:16:49;18.90;99.90
23081;DHT22;11708;50.570;8.532;2022-07-29T22:19:15;18.80;99.90
23081;DHT22;11708;50.570;8.532;2022-07-29T22:21:41;18.80;99.90
23081;DHT22;11708;50.570;8.532;2022-07-29T22:24:07;18.80;99.90
23081;DHT22;11708;50.570;8.532;2022-07-29T22:26:34;18.80;99.90
23081;DHT22;11708;50.570;8.532;2022-07-29T22:31:26;18.70;99.90
23081;DHT22;11708;50.570;8.532;2022-07-29T22:33:51;18.70;99.90
23081;DHT22;11708;50.570;8.532;2022-07-29T22:36:18;18.60;99.90
23081;DHT22;11708;50.570;8.532;2022-07-29T22:38:43;18.60;99.90
23081;DHT22;11708;50.570;8.532;2022-07-29T22:41:09;18.60;99.90
23081;DHT22;11708;50.570;8.532;2022-07-29T22:43:37;18.50;99.90
23081;DHT22;11708;50.570;8.532;2022-07-29T22:46:03;18.50;99.90
23081;DHT22;11708;50.570;8.532;2022-07-29T22:48:29;18.50;99.90
23081;DHT22;11708;50.570;8.532;2022-07-29T22:50:55;18.40;99.90
23081;DHT22;11708;50.570;8.532;2022-07-29T22:53:20;18.60;99.90
23081;DHT22;11708;50.570;8.532;2022-07-29T22:55:46;18.70;99.90
23081;DHT22;11708;50.570;8.532;2022-07-29T22:58:11;18.40;99.90
23081;DHT22;11708;50.570;8.532;2022-07-29T23:00:37;18.40;99.90
23081;DHT22;11708;50.570;8.532;2022-07-29T23:03:03;18.30;99.90
23081;DHT22;11708;50.570;8.532;2022-07-29T23:07:55;18.30;99.90
23081;DHT22;11708;50.570;8.532;2022-07-29T23:10:20;18.30;99.90
23081;DHT22;11708;50.570;8.532;2022-07-29T23:12:47;18.30;99.90
23081;DHT22;11708;50.570;8.532;2022-07-29T23:15:12;18.30;99.90
23081;DHT22;11708;50.570;8.532;2022-07-29T23:17:38;18.30;99.90
23081;DHT22;11708;50.570;8.532;2022-07-29T23:20:07;18.50;99.90
23081;DHT22;11708;50.570;8.532;2022-07-29T23:22:34;18.40;99.90
23081;DHT22;11708;50.570;8.532;2022-07-29T23:24:59;18.40;99.90
23081;DHT22;11708;50.570;8.532;2022-07-29T23:27:25;18.50;99.90
23081;DHT22;11708;50.570;8.532;2022-07-29T23:29:50;18.40;99.90
23081;DHT22;11708;50.570;8.532;2022-07-29T23:32:16;18.50;99.90
23081;DHT22;11708;50.570;8.532;2022-07-29T23:34:41;19.00;99.90
23081;DHT22;11708;50.570;8.532;2022-07-29T23:37:07;18.40;99.90
23081;DHT22;11708;50.570;8.532;2022-07-29T23:39:32;18.40;99.90
23081;DHT22;11708;50.570;8.532;2022-07-29T23:44:24;18.50;99.90
23081;DHT22;11708;50.570;8.532;2022-07-29T23:46:50;18.60;99.90
23081;DHT22;11708;50.570;8.532;2022-07-29T23:49:15;18.50;99.90
23081;DHT22;11708;50.570;8.532;2022-07-29T23:51:41;18.40;99.90
23081;DHT22;11708;50.570;8.532;2022-07-29T23:54:06;18.40;99.90
23081;DHT22;11708;50.570;8.532;2022-07-29T23:56:32;18.40;99.90
23081;DHT22;11708;50.570;8.532;2022-07-29T23:58:57;18.50;99.90
